ANW weather

Ainsworth Regional Airport
Ainsworth, Nebraska, United States

Public forecast

Using degrees Fahrenheit for public forecast. Weather courtesy of forecast.io.

Current aviation weather report (METAR) for Ainsworth Regional Airport

Retrieved 2019/12/11 05:35 UTC (12 minutes ago):

KANW 110535Z AUTO 25011KT 10SM CLR 00/M05 A3009 RMK AO2 T00001047

Closest aviation forecast (TAF) to Ainsworth Regional Airport

Closest forecast is Miller Field, 29.7 nm (54.9 km) NW. Retrieved 2019-12-11 00:27 UTC (5 hours ago):

TAF KVTN 102324Z 1100/1124 VRB04KT P6SM SCT100 FM111200 VRB04KT P6SM OVC070 FM111400 12006KT P6SM BKN050 FM111800 15013KT P6SM OVC250